CYUL/YUL METAR and TAF weather

Enter ICAO airport designator
Station Type Date Time Source
CYUL METAR 2019/08/19 08:00 UTC NOAA

CYUL 190800Z 23002KT 15SM SKC 22/20 A2984 RMK SLP105 DENSITY ALT 1100FT


Station Type Date Time Source
CYUL Decoded METAR 2019/08/19 08:00 UTC NOAA

Station name not available
Aug 19, 2019 - 04:00 AM EDT / 2019.08.19 0800 UTC
Wind: from the SW (230 degrees) at 2 MPH (2 KT):0
Visibility: 15 mile(s):0
Sky conditions: clear
Temperature: 71 F (22 C)
Dew Point: 68 F (20 C)
Relative Humidity: 88%
Pressure (altimeter): 29.84 in. Hg (1010 hPa)
ob: CYUL 190800Z 23002KT 15SM SKC 22/20 A2984 RMK SLP105 DENSITY ALT 1100FT
cycle: 8

Station Type Date Time Source
CYUL TAF 2019/08/19 06:42 UTC NOAA

TAF CYUL 190538Z 1906/2006 17006KT P6SM FEW050 SCT100
FM190900 17007KT P6SM SCT050 BKN080
TEMPO 1910/1913 P6SM -SHRA SCT030 OVC050
FM191300 22012G22KT P6SM SCT030 BKN120
FM191500 24015G25KT P6SM BKN040
TEMPO 1918/1921 P6SM -SHRA
FM192300 28015KT P6SM FEW060
BECMG 2001/2003 29008KT
RMK NXT FCST BY 190900Z

Example: see airport list